Time;durP1;ratioP1;P1;durP2;ratioP2;P2;SDS_P1;SDS_P2;PMS_P1;PMS_P2;Temp;Humidity;BMP_temperature;BMP_pressure;BME280_temperature;BME280_humidity;BME280_pressure;Samples;Min_cycle;Max_cycle;Signal;HPM_P1;HPM_P2
2022/08/19 00:01:57;;;;;;;21.45;18.98;;;;;;;17.97;100.00;101157.63;6185778;23;20072;-89
2022/08/19 00:04:33;;;;;;;22.40;19.47;;;;;;;17.95;100.00;101159.78;6185277;23;20005;-90
2022/08/19 00:07:01;;;;;;;23.27;18.63;;;;;;;17.94;100.00;101160.84;6185369;23;20016;-89
2022/08/19 00:09:38;;;;;;;22.85;18.83;;;;;;;17.89;100.00;101150.63;6184527;23;20052;-89
2022/08/19 00:12:04;;;;;;;23.50;18.13;;;;;;;17.88;100.00;101155.28;6184238;23;20005;-89
2022/08/19 00:14:32;;;;;;;24.93;18.83;;;;;;;17.83;100.00;101159.88;6184185;23;20047;-90
2022/08/19 00:16:58;;;;;;;24.50;19.83;;;;;;;17.80;100.00;101150.25;6183492;23;20020;-90
2022/08/19 00:19:24;;;;;;;26.75;19.73;;;;;;;17.77;100.00;101150.75;6185751;23;20328;-90
2022/08/19 00:21:50;;;;;;;26.53;20.53;;;;;;;17.75;100.00;101147.44;6183980;23;20008;-90
2022/08/19 00:24:16;;;;;;;26.55;22.05;;;;;;;17.70;100.00;101152.88;6184144;23;20017;-90
2022/08/19 00:26:42;;;;;;;25.60;19.25;;;;;;;17.69;100.00;101152.03;6184042;23;20446;-91
2022/08/19 00:29:13;;;;;;;29.20;21.27;;;;;;;17.66;100.00;101151.75;6184518;23;20383;-90
2022/08/19 00:31:40;;;;;;;24.10;19.47;;;;;;;17.67;100.00;101154.22;6184265;23;20083;-90
2022/08/19 00:34:08;;;;;;;25.77;20.23;;;;;;;17.62;100.00;101147.84;6183981;23;20005;-90
2022/08/19 00:36:40;;;;;;;27.02;21.02;;;;;;;17.60;100.00;101150.00;6184193;23;20024;-90
2022/08/19 00:39:23;;;;;;;25.88;21.25;;;;;;;17.56;100.00;101151.63;6186878;23;20029;-90
2022/08/19 00:41:51;;;;;;;26.10;22.00;;;;;;;17.54;100.00;101154.59;6184819;23;20012;-89
2022/08/19 00:44:19;;;;;;;28.43;21.53;;;;;;;17.56;100.00;101170.81;6184105;23;20335;-89
2022/08/19 00:46:58;;;;;;;29.00;23.55;;;;;;;17.44;100.00;101158.03;6185709;23;20033;-90
2022/08/19 00:49:32;;;;;;;28.55;23.13;;;;;;;17.44;100.00;101162.72;6187371;23;20001;-90
2022/08/19 00:52:28;;;;;;;30.45;21.95;;;;;;;17.40;100.00;101169.78;6186601;23;20005;-90
2022/08/19 00:54:54;;;;;;;28.13;23.30;;;;;;;17.34;100.00;101166.94;6149696;23;20071;-90
2022/08/19 00:57:34;;;;;;;32.47;23.07;;;;;;;17.29;100.00;101161.41;6185846;23;20374;-90
2022/08/19 01:00:04;;;;;;;32.00;23.13;;;;;;;17.26;100.00;101158.31;6185860;23;20009;-90
2022/08/19 01:02:45;;;;;;;31.83;24.80;;;;;;;17.24;100.00;101153.09;6187959;23;20012;-90
2022/08/19 01:05:28;;;;;;;;;;;;;;;;;;;;;
2022/08/19 01:08:00;;;;;;;34.40;23.13;;;;;;;17.21;100.00;101155.53;6188748;23;20096;-90
2022/08/19 01:10:29;;;;;;;33.58;24.02;;;;;;;17.21;100.00;101161.81;6186481;23;20005;-90
2022/08/19 01:12:58;;;;;;;36.25;23.58;;;;;;;17.17;100.00;101160.69;6185540;23;20013;-90
2022/08/19 01:15:38;;;;;;;30.38;23.35;;;;;;;17.16;100.00;101164.50;6186048;23;20008;-90
2022/08/19 01:18:18;;;;;;;;;;;;;;;;;;;;;
2022/08/19 01:20:44;;;;;;;29.47;22.33;;;;;;;17.13;100.00;101165.84;6187824;23;20076;-90
2022/08/19 01:23:18;;;;;;;33.95;24.17;;;;;;;17.14;100.00;101163.91;6185533;23;20015;-90
2022/08/19 01:25:58;;;;;;;34.75;24.33;;;;;;;17.10;100.00;101155.38;6186105;23;20096;-90
2022/08/19 01:28:36;;;;;;;33.25;23.88;;;;;;;17.09;100.00;101159.19;6162587;23;20020;-89
2022/08/19 01:31:07;;;;;;;29.77;23.33;;;;;;;17.04;100.00;101155.53;6185912;23;20005;-89
2022/08/19 01:33:45;;;;;;;;;;;;;;;;;;;;;
2022/08/19 01:36:16;;;;;;;32.25;23.10;;;;;;;17.04;100.00;101156.38;6200439;23;20095;-90
2022/08/19 01:38:45;;;;;;;31.58;23.15;;;;;;;17.01;100.00;101156.88;6217958;23;20000;-90
2022/08/19 01:41:14;;;;;;;32.28;22.55;;;;;;;17.03;100.00;101156.63;6190045;23;20020;-89
2022/08/19 01:43:43;;;;;;;29.27;22.75;;;;;;;16.97;100.00;101159.28;6166621;23;20013;-89
2022/08/19 01:46:13;;;;;;;30.73;23.53;;;;;;;16.96;100.00;101157.66;6191112;23;20530;-90
2022/08/19 01:48:43;;;;;;;34.00;24.38;;;;;;;16.94;100.00;101153.50;6166605;23;20009;-89
2022/08/19 01:51:12;;;;;;;32.28;23.80;;;;;;;16.94;100.00;101151.56;6190926;23;20036;-90
2022/08/19 01:53:44;;;;;;;35.03;23.00;;;;;;;16.90;100.00;101147.66;6165470;23;20031;-89
2022/08/19 01:56:13;;;;;;;32.67;23.88;;;;;;;16.93;100.00;101152.66;6217306;23;20080;-90
2022/08/19 01:58:46;;;;;;;34.43;24.63;;;;;;;16.87;100.00;101148.16;6165360;23;20013;-90
2022/08/19 02:01:13;;;;;;;32.88;24.65;;;;;;;16.83;100.00;101155.22;6190517;23;20086;-90
2022/08/19 02:03:41;;;;;;;40.17;26.35;;;;;;;16.79;100.00;101157.59;6190115;23;20000;-90
2022/08/19 02:06:06;;;;;;;37.90;26.95;;;;;;;16.78;100.00;101160.59;6190101;23;20394;-90
2022/08/19 02:08:38;;;;;;;44.80;27.40;;;;;;;16.73;100.00;101157.78;6216676;23;20008;-90
2022/08/19 02:11:08;;;;;;;40.05;25.92;;;;;;;16.71;100.00;101154.44;6190858;23;20327;-90
2022/08/19 02:13:36;;;;;;;41.28;26.92;;;;;;;16.70;100.00;101161.84;6190674;23;20039;-90
2022/08/19 02:16:02;;;;;;;42.03;27.50;;;;;;;16.69;100.00;101171.13;6189990;23;20009;-90
2022/08/19 02:18:28;;;;;;;43.87;27.53;;;;;;;16.64;100.00;101182.03;6217096;23;20438;-90
2022/08/19 02:21:00;;;;;;;41.10;27.13;;;;;;;16.63;100.00;101180.34;6216600;23;20028;-90
2022/08/19 02:23:31;;;;;;;39.97;27.02;;;;;;;16.61;100.00;101177.88;6190512;23;20049;-89
2022/08/19 02:26:01;;;;;;;39.33;26.85;;;;;;;16.60;100.00;101175.38;6217633;23;20004;-90
2022/08/19 02:28:32;;;;;;;39.72;26.40;;;;;;;16.58;100.00;101175.63;6215399;23;20508;-89
2022/08/19 02:31:02;;;;;;;39.60;26.90;;;;;;;16.54;100.00;101187.34;6217030;23;20427;-89
2022/08/19 02:33:31;;;;;;;39.63;25.50;;;;;;;16.52;100.00;101186.72;6190621;23;20138;-90
2022/08/19 02:36:02;;;;;;;40.97;26.90;;;;;;;16.50;100.00;101186.97;6190058;23;20091;-89
2022/08/19 02:38:43;;;;;;;;;;;;;;;;;;;;;
2022/08/19 02:41:38;;;;;;;42.75;26.50;;;;;;;16.42;100.00;101190.94;6217809;23;20364;-89
2022/08/19 02:44:06;;;;;;;37.42;26.13;;;;;;;16.41;100.00;101181.06;6168173;23;20016;-90
2022/08/19 02:46:35;;;;;;;41.03;26.83;;;;;;;16.42;100.00;101184.66;6189764;23;20107;-90
2022/08/19 02:49:06;;;;;;;43.85;27.15;;;;;;;16.42;100.00;101184.66;6189991;23;20016;-90
2022/08/19 02:51:38;;;;;;;41.70;27.30;;;;;;;16.43;100.00;101187.16;6216762;23;20005;-90
2022/08/19 02:54:14;;;;;;;47.80;29.38;;;;;;;16.40;100.00;101192.28;6190342;23;20011;-90
2022/08/19 02:56:42;;;;;;;44.75;28.45;;;;;;;16.39;100.00;101201.59;6190098;23;20012;-90
2022/08/19 02:59:11;;;;;;;45.70;29.50;;;;;;;16.42;100.00;101203.81;6189596;23;20008;-90
2022/08/19 03:01:47;;;;;;;51.60;30.27;;;;;;;16.43;100.00;101200.84;6189924;23;20008;-90
2022/08/19 03:04:22;;;;;;;46.88;29.33;;;;;;;16.42;100.00;101190.94;6164886;23;20438;-90
2022/08/19 03:06:55;;;;;;;46.28;30.70;;;;;;;16.37;100.00;101187.28;6190981;23;20426;-89
2022/08/19 03:09:31;;;;;;;43.75;29.02;;;;;;;16.38;100.00;101192.50;6215407;23;20022;-90
2022/08/19 03:12:02;;;;;;;45.63;30.07;;;;;;;16.35;100.00;101183.97;6189948;23;20479;-90
2022/08/19 03:14:33;;;;;;;43.70;29.73;;;;;;;16.34;100.00;101182.31;6165430;23;20009;-90
2022/08/19 03:17:04;;;;;;;48.72;32.20;;;;;;;16.34;100.00;101187.78;6190262;23;20008;-90
2022/08/19 03:19:38;;;;;;;52.08;32.05;;;;;;;16.29;100.00;101199.47;6216135;23;20005;-90
2022/08/19 03:22:11;;;;;;;49.10;31.92;;;;;;;16.25;100.00;101199.13;6190183;23;20047;-90
2022/08/19 03:24:47;;;;;;;48.77;32.57;;;;;;;16.24;100.00;101200.22;6189394;23;20012;-90
2022/08/19 03:27:20;;;;;;;49.80;33.50;;;;;;;16.24;100.00;101188.41;6190126;23;20008;-90
2022/08/19 03:29:51;;;;;;;56.95;35.15;;;;;;;16.23;100.00;101186.78;6191547;23;20442;-90
2022/08/19 03:32:22;;;;;;;56.33;34.83;;;;;;;16.21;100.00;101183.44;6189363;23;20004;-90
2022/08/19 03:34:55;;;;;;;57.50;35.28;;;;;;;16.16;100.00;101186.91;6189727;23;20039;-90
2022/08/19 03:37:30;;;;;;;57.13;36.57;;;;;;;16.16;100.00;101194.28;6166557;23;20308;-91
2022/08/19 03:40:03;;;;;;;59.63;37.03;;;;;;;16.13;100.00;101190.94;6140560;23;20012;-90
2022/08/19 03:42:31;;;;;;;60.20;36.60;;;;;;;16.15;100.00;101190.75;6190273;23;20005;-89
2022/08/19 03:44:58;;;;;;;59.58;36.30;;;;;;;16.11;100.00;101178.59;6189935;23;20450;-90
2022/08/19 03:47:28;;;;;;;59.20;37.38;;;;;;;16.07;100.00;101175.50;6166116;23;20009;-90
2022/08/19 03:49:56;;;;;;;58.00;36.90;;;;;;;16.06;100.00;101181.22;6189351;23;20014;-90
2022/08/19 03:52:31;;;;;;;57.05;36.92;;;;;;;16.03;100.00;101184.47;6189573;23;20004;-90
2022/08/19 03:54:59;;;;;;;59.25;38.75;;;;;;;15.99;100.00;101180.53;6190484;23;20379;-90
2022/08/19 03:57:25;;;;;;;61.75;39.88;;;;;;;15.98;100.00;101179.72;6188950;23;20036;-90
2022/08/19 03:59:50;;;;;;;65.20;38.20;;;;;;;15.94;100.00;101175.81;6215915;23;20008;-90
2022/08/19 04:02:18;;;;;;;59.30;38.17;;;;;;;15.91;100.00;101173.56;6164518;23;20335;-93
2022/08/19 04:04:49;;;;;;;57.50;36.10;;;;;;;15.91;100.00;101179.84;6189899;23;20447;-90
2022/08/19 04:07:29;;;;;;;60.22;38.22;;;;;;;15.91;100.00;101188.06;6190598;23;20087;-90
2022/08/19 04:10:01;;;;;;;64.50;39.38;;;;;;;15.88;100.00;101185.00;6167220;23;20481;-90
2022/08/19 04:12:38;;;;;;;;;;;;;;;;;;;;;
2022/08/19 04:15:15;;;;;;;;;;;;;;;;;;;;;
2022/08/19 04:17:50;;;;;;;69.80;41.20;;;;;;;15.81;100.00;101176.09;6216864;23;20072;-89
2022/08/19 04:20:18;;;;;;;72.20;41.08;;;;;;;15.79;100.00;101179.88;6189511;23;20008;-90
2022/08/19 04:22:48;;;;;;;72.05;40.95;;;;;;;15.76;100.00;101179.50;6215628;23;20411;-90
2022/08/19 04:25:13;;;;;;;71.43;40.65;;;;;;;15.76;100.00;101180.34;6167088;23;20012;-90
2022/08/19 04:27:46;;;;;;;71.27;40.17;;;;;;;15.74;100.00;101177.03;6190992;23;20461;-90
2022/08/19 04:30:19;;;;;;;70.53;40.15;;;;;;;15.72;100.00;101179.19;6193239;23;20016;-90
2022/08/19 04:32:52;;;;;;;73.40;39.05;;;;;;;15.70;100.00;101169.56;6190956;23;20012;-90
2022/08/19 04:35:23;;;;;;;68.53;38.33;;;;;;;15.67;100.00;101170.03;6166081;23;20009;-91
2022/08/19 04:37:53;;;;;;;68.40;37.83;;;;;;;15.61;100.00;101167.19;6191382;23;20008;-90
2022/08/19 04:43:08;;;;;;;69.97;37.40;;;;;;;15.54;100.00;101173.84;6218017;23;20015;-91
2022/08/19 04:45:39;;;;;;;63.28;37.03;;;;;;;15.51;100.00;101175.16;6191428;23;20046;-90
2022/08/19 04:48:05;;;;;;;63.40;38.23;;;;;;;15.47;100.00;101173.97;6191525;23;20029;-90
2022/08/19 04:50:36;;;;;;;66.45;39.20;;;;;;;15.51;100.00;101188.84;6216366;23;20019;-90
2022/08/19 04:53:10;;;;;;;66.65;38.55;;;;;;;15.48;100.00;101186.59;6190788;23;20005;-90
2022/08/19 04:56:00;;;;;;;68.70;39.38;;;;;;;15.52;100.00;101192.41;6191203;23;20087;-90
2022/08/19 04:58:37;;;;;;;64.80;37.88;;;;;;;15.51;100.00;101193.47;6215512;23;20009;-90
2022/08/19 05:01:12;;;;;;;65.83;37.50;;;;;;;15.52;100.00;101189.69;6191408;23;20016;-90
2022/08/19 05:03:40;;;;;;;71.18;39.63;;;;;;;15.52;100.00;101200.63;6190975;23;20019;-90
2022/08/19 05:06:12;;;;;;;75.88;40.42;;;;;;;15.53;100.00;101194.91;6191056;23;20008;-90
2022/08/19 05:08:57;;;;;;;71.10;39.92;;;;;;;15.53;100.00;101197.66;6217374;23;20066;-90
2022/08/19 05:11:27;;;;;;;76.10;42.03;;;;;;;15.53;100.00;101203.13;6190726;23;20050;-82
2022/08/19 05:13:56;;;;;;;75.70;41.27;;;;;;;15.57;100.00;101215.22;6190589;23;20011;-81
2022/08/19 05:16:23;;;;;;;81.28;41.67;;;;;;;15.58;100.00;101216.88;6191204;23;20023;-83
2022/08/19 05:24:20;;;;;;;84.75;44.40;;;;;;;15.59;100.00;101226.75;6217922;23;20019;-81
2022/08/19 05:26:50;;;;;;;83.00;43.00;;;;;;;15.61;100.00;101223.78;6190606;23;20004;-81
2022/08/19 05:29:19;;;;;;;82.72;43.58;;;;;;;15.63;100.00;101229.84;6190473;23;20015;-81
2022/08/19 05:31:48;;;;;;;85.45;44.95;;;;;;;15.67;100.00;101241.16;6218128;23;20019;-82
2022/08/19 05:34:15;;;;;;;94.18;46.28;;;;;;;15.65;100.00;101238.66;6187655;23;20012;-83
2022/08/19 05:36:45;;;;;;;89.38;45.92;;;;;;;15.69;100.00;101244.47;6185349;23;20071;-83
2022/08/19 05:39:17;;;;;;;84.57;44.23;;;;;;;15.71;100.00;101245.06;6160844;23;20005;-82
2022/08/19 05:41:49;;;;;;;86.05;44.13;;;;;;;15.78;100.00;101256.72;6160720;23;20001;-83
2022/08/19 05:44:15;;;;;;;84.93;44.20;;;;;;;15.78;100.00;101254.00;6186955;23;20450;-82
2022/08/19 05:46:43;;;;;;;86.95;44.25;;;;;;;15.83;100.00;101243.19;6186864;23;20009;-83
2022/08/19 05:49:08;;;;;;;82.95;43.53;;;;;;;15.87;100.00;101249.84;6160704;23;20332;-83
2022/08/19 05:51:37;;;;;;;79.53;43.03;;;;;;;15.88;100.00;101251.47;6136093;23;20096;-82
2022/08/19 05:54:04;;;;;;;81.38;42.03;;;;;;;15.88;100.00;101256.94;6160414;23;20019;-82
2022/08/19 05:56:34;;;;;;;84.37;41.73;;;;;;;15.90;100.00;101253.97;6187202;23;20009;-83
2022/08/19 05:59:00;;;;;;;81.65;42.90;;;;;;;15.89;100.00;101244.94;6160337;23;20009;-83
2022/08/19 06:01:26;;;;;;;85.88;44.20;;;;;;;15.90;100.00;101234.81;6160880;23;20008;-82
2022/08/19 06:03:52;;;;;;;82.17;42.93;;;;;;;15.93;100.00;101235.19;6160954;23;20309;-83
2022/08/19 06:06:21;;;;;;;84.05;42.60;;;;;;;15.97;100.00;101243.72;6135911;23;20398;-84
2022/08/19 06:08:49;;;;;;;87.15;44.25;;;;;;;15.94;100.00;101231.38;6136410;23;20475;-83
2022/08/19 06:11:34;;;;;;;79.32;40.67;;;;;;;16.01;100.00;101238.63;6161391;23;20008;-83
2022/08/19 06:14:03;;;;;;;80.73;41.03;;;;;;;16.07;100.00;101235.72;6160907;23;20063;-83
2022/08/19 06:16:31;;;;;;;79.13;40.42;;;;;;;16.09;100.00;101239.06;6160545;23;20012;-83
2022/08/19 06:18:59;;;;;;;81.45;41.25;;;;;;;16.12;100.00;101226.78;6160762;23;20371;-82
2022/08/19 06:21:27;;;;;;;82.20;41.10;;;;;;;16.18;100.00;101228.56;6160962;23;20009;-83
2022/08/19 06:23:54;;;;;;;80.63;40.50;;;;;;;16.21;100.00;101233.56;6136518;23;20013;-83
2022/08/19 06:26:21;;;;;;;76.40;39.53;;;;;;;16.22;100.00;101232.47;6186839;23;20012;-83
2022/08/19 06:28:47;;;;;;;77.65;39.38;;;;;;;16.26;100.00;101225.44;6135774;23;20021;-82
2022/08/19 06:31:21;;;;;;;78.00;39.45;;;;;;;16.34;100.00;101231.59;6186400;23;20040;-83
2022/08/19 06:33:48;;;;;;;75.32;38.13;;;;;;;16.38;100.00;101232.78;6160608;23;20059;-83
2022/08/19 06:36:29;;;;;;;73.47;38.30;;;;;;;16.43;100.00;101232.84;6199907;23;20077;-82
2022/08/19 06:38:57;;;;;;;77.60;38.17;;;;;;;16.51;100.00;101223.44;6216772;23;20008;-82
2022/08/19 06:41:23;;;;;;;75.72;37.33;;;;;;;16.54;100.00;101226.50;6190093;23;20012;-83
2022/08/19 06:43:49;;;;;;;77.70;37.35;;;;;;;16.61;100.00;101227.19;6216361;23;20000;-82
2022/08/19 06:46:17;;;;;;;72.03;36.60;;;;;;;16.70;100.00;101224.00;6165280;23;20131;-82
2022/08/19 06:48:46;;;;;;;72.82;35.45;;;;;;;16.81;100.00;101234.91;6165827;23;20015;-83
2022/08/19 06:51:20;;;;;;;70.13;34.10;;;;;;;16.93;100.00;101229.41;6190026;23;20005;-83
2022/08/19 06:53:50;;;;;;;62.53;33.67;;;;;;;17.04;100.00;101229.53;6189504;23;20000;-82
2022/08/19 06:56:21;;;;;;;59.43;31.90;;;;;;;17.12;100.00;101226.41;6216273;23;20007;-82
2022/08/19 06:58:50;;;;;;;68.28;33.35;;;;;;;17.23;100.00;101232.88;6190942;23;20506;-82
2022/08/19 07:01:20;;;;;;;62.70;32.97;;;;;;;17.28;100.00;101231.03;6190739;23;20083;-83
2022/08/19 07:03:46;;;;;;;57.40;31.80;;;;;;;17.35;100.00;101230.88;6189393;23;20016;-83
2022/08/19 07:06:17;;;;;;;59.00;31.58;;;;;;;17.41;100.00;101224.38;6190528;23;20008;-83
2022/08/19 07:08:43;;;;;;;61.23;32.27;;;;;;;17.47;100.00;101225.28;6189552;23;20453;-82
2022/08/19 07:11:12;;;;;;;61.80;32.35;;;;;;;17.55;100.00;101216.59;6189809;23;20119;-83
2022/08/19 07:13:39;;;;;;;55.28;31.38;;;;;;;17.66;100.00;101231.31;6189728;23;20011;-82
2022/08/19 07:16:16;;;;;;;59.45;30.60;;;;;;;17.76;100.00;101234.19;6216479;23;20005;-82
2022/08/19 07:18:41;;;;;;;60.42;32.25;;;;;;;17.84;100.00;101228.25;6190033;23;20038;-82
2022/08/19 07:21:13;;;;;;;56.90;29.53;;;;;;;17.97;100.00;101234.50;6189230;23;20439;-82
2022/08/19 07:23:39;;;;;;;57.63;29.73;;;;;;;18.09;100.00;101231.59;6215268;23;20308;-82
2022/08/19 07:26:09;;;;;;;50.60;28.23;;;;;;;18.22;100.00;101239.44;6216320;23;20040;-82
2022/08/19 07:28:38;;;;;;;51.97;28.13;;;;;;;18.43;100.00;101256.16;6216543;23;20079;-83
2022/08/19 07:31:06;;;;;;;56.13;27.05;;;;;;;18.70;100.00;101256.16;6216307;23;20011;-82
2022/08/19 07:33:32;;;;;;;52.38;28.20;;;;;;;18.90;98.55;101250.88;6189041;23;20004;-82
2022/08/19 07:35:58;;;;;;;49.67;27.02;;;;;;;19.26;97.27;101256.66;6184205;23;20017;-82
2022/08/19 07:38:24;;;;;;;49.47;30.03;;;;;;;19.44;94.96;101255.41;6184748;23;20331;-82
2022/08/19 07:40:53;;;;;;;53.72;29.30;;;;;;;19.67;94.36;101249.78;6186221;23;20327;-83
2022/08/19 07:43:20;;;;;;;56.03;32.92;;;;;;;19.83;92.32;101256.19;6159842;23;20013;-83
2022/08/19 07:45:46;;;;;;;51.45;31.85;;;;;;;19.90;91.35;101262.28;6184843;23;20013;-83
2022/08/19 07:48:12;;;;;;;51.10;30.47;;;;;;;20.14;90.23;101263.50;6160400;23;20036;-82
2022/08/19 07:50:38;;;;;;;57.67;32.83;;;;;;;20.27;89.40;101270.44;6159157;23;20016;-82
2022/08/19 07:53:03;;;;;;;62.57;36.17;;;;;;;20.23;88.72;101269.31;6184259;23;20015;-83
2022/08/19 07:55:29;;;;;;;61.55;34.63;;;;;;;20.20;88.61;101275.38;6159184;23;20305;-83
2022/08/19 07:57:55;;;;;;;62.20;35.80;;;;;;;20.20;88.93;101282.81;6160344;23;20090;-82
2022/08/19 08:00:20;;;;;;;56.63;34.70;;;;;;;20.26;88.88;101278.97;6184443;23;20052;-83
2022/08/19 08:02:46;;;;;;;54.93;34.33;;;;;;;20.27;88.10;101291.63;6184297;23;20009;-83
2022/08/19 08:10:41;;;;;;;57.22;37.45;;;;;;;20.31;87.47;101284.50;6185908;23;20020;-82
2022/08/19 08:13:07;;;;;;;55.43;37.40;;;;;;;20.30;87.52;101280.91;6183741;23;20009;-83
2022/08/19 08:15:33;;;;;;;60.00;36.87;;;;;;;20.32;86.90;101284.22;6134639;23;20033;-83
2022/08/19 08:18:00;;;;;;;58.28;37.08;;;;;;;20.26;86.92;101296.31;6183431;23;20013;-85
2022/08/19 08:20:26;;;;;;;53.60;35.85;;;;;;;20.06;87.66;101291.56;6161038;23;20060;-85
2022/08/19 08:25:36;;;;;;;56.30;36.38;;;;;;;20.15;88.27;101298.22;6185936;23;20020;-84
2022/08/19 08:28:02;;;;;;;53.27;34.07;;;;;;;20.22;88.09;101302.66;6135768;23;20041;-83
2022/08/19 08:30:29;;;;;;;49.70;33.72;;;;;;;20.21;87.64;101307.34;6183917;23;20016;-84
2022/08/19 08:32:55;;;;;;;52.35;33.20;;;;;;;20.24;86.95;101306.81;6184228;23;20001;-84
2022/08/19 08:35:23;;;;;;;43.03;30.23;;;;;;;20.26;86.52;101312.84;6185409;23;20037;-84
2022/08/19 08:37:51;;;;;;;49.08;33.13;;;;;;;20.39;86.42;101302.41;6183557;23;20021;-85
2022/08/19 08:40:22;;;;;;;52.43;32.13;;;;;;;20.57;86.27;101309.41;6183842;23;20005;-84
2022/08/19 08:43:04;;;;;;;47.65;29.27;;;;;;;20.78;84.37;101307.53;6184864;23;20009;-83
2022/08/19 08:45:38;;;;;;;40.45;27.90;;;;;;;21.19;83.92;101313.91;6185817;23;20486;-83
2022/08/19 08:48:20;;;;;;;40.70;27.48;;;;;;;21.55;82.69;101322.22;6184659;23;20427;-84
2022/08/19 08:50:48;;;;;;;44.15;29.40;;;;;;;21.61;80.62;101316.66;6184124;23;20008;-84
2022/08/19 08:53:16;;;;;;;44.87;29.30;;;;;;;21.53;79.82;101326.34;6160622;23;20063;-83
2022/08/19 08:55:42;;;;;;;48.92;29.48;;;;;;;21.22;80.87;101326.34;6185679;23;20089;-83
2022/08/19 08:58:15;;;;;;;44.85;30.05;;;;;;;21.00;82.35;101324.66;6185571;23;20087;-83
2022/08/19 09:00:46;;;;;;;45.05;30.23;;;;;;;20.80;82.30;101310.84;6185898;23;20080;-84
2022/08/19 09:03:24;;;;;;;44.10;28.63;;;;;;;20.85;83.51;101311.66;6185745;23;20006;-83
2022/08/19 09:06:03;;;;;;;51.60;30.20;;;;;;;21.08;82.97;101316.94;6184407;23;20005;-82
2022/08/19 09:08:49;;;;;;;48.28;32.03;;;;;;;21.10;82.32;101310.06;6186445;23;20031;-82
2022/08/19 09:11:37;;;;;;;49.35;32.50;;;;;;;21.26;82.21;101316.41;6186522;23;20075;-82
2022/08/19 09:14:32;;;;;;;49.17;32.70;;;;;;;21.55;80.33;101311.19;6186055;23;20432;-82
2022/08/19 09:16:59;;;;;;;47.28;31.75;;;;;;;21.53;79.00;101313.38;6185350;23;20036;-82
2022/08/19 09:19:24;;;;;;;50.87;33.57;;;;;;;21.43;79.21;101310.59;6185821;23;20001;-82
2022/08/19 09:21:50;;;;;;;46.20;33.22;;;;;;;21.35;79.81;101313.91;6187277;23;20019;-82
2022/08/19 09:24:16;;;;;;;51.80;34.13;;;;;;;21.18;80.34;101322.47;6160592;23;20012;-82
2022/08/19 09:26:43;;;;;;;46.83;32.30;;;;;;;20.95;81.07;101318.28;6185602;23;20005;-81
2022/08/19 09:29:12;;;;;;;48.75;32.47;;;;;;;20.65;82.25;101330.91;6187741;23;20001;-84
2022/08/19 09:31:41;;;;;;;47.10;31.65;;;;;;;20.45;83.38;101334.44;6185910;23;20009;-83
2022/08/19 09:34:06;;;;;;;45.43;31.53;;;;;;;20.37;83.99;101329.44;6185311;23;20416;-86
2022/08/19 09:36:33;;;;;;;54.03;31.70;;;;;;;20.43;83.80;101331.94;6200808;23;20009;-82
2022/08/19 09:39:00;;;;;;;53.27;31.10;;;;;;;20.66;83.15;101327.09;6166177;23;20017;-82
2022/08/19 09:41:26;;;;;;;52.67;33.67;;;;;;;20.78;82.41;101324.06;6166827;23;20055;-82
2022/08/19 09:43:57;;;;;;;52.55;31.45;;;;;;;21.05;81.58;101331.28;6165569;23;20299;-82
2022/08/19 09:46:25;;;;;;;47.07;29.07;;;;;;;21.16;80.42;101328.25;6167067;23;20295;-83
2022/08/19 09:48:54;;;;;;;48.38;32.00;;;;;;;21.07;80.68;101329.91;6191109;23;20418;-83
2022/08/19 09:51:22;;;;;;;48.78;30.55;;;;;;;21.12;81.26;101329.09;6216750;23;20005;-83
2022/08/19 09:53:57;;;;;;;46.47;28.90;;;;;;;21.16;80.62;101333.78;6190641;23;20000;-82
2022/08/19 09:56:22;;;;;;;47.50;31.75;;;;;;;21.01;80.82;101328.25;6193466;23;20026;-83
2022/08/19 09:58:48;;;;;;;42.73;29.10;;;;;;;20.98;80.95;101328.81;6190808;23;20015;-83
2022/08/19 10:01:24;;;;;;;50.75;31.38;;;;;;;21.01;81.39;101325.50;6216900;23;20000;-82
2022/08/19 10:03:53;;;;;;;46.63;28.67;;;;;;;21.12;80.23;101335.41;6190450;23;20001;-83
2022/08/19 10:06:19;;;;;;;46.13;29.30;;;;;;;21.10;80.90;101337.63;6191001;23;20486;-83
2022/08/19 10:08:46;;;;;;;47.03;29.30;;;;;;;20.94;80.72;101339.53;6190069;23;20001;-82
2022/08/19 10:11:14;;;;;;;47.60;28.25;;;;;;;20.91;81.45;101331.81;6191285;23;20335;-83
2022/08/19 10:13:39;;;;;;;51.60;29.70;;;;;;;20.95;81.54;101338.44;6217172;23;20004;-83
2022/08/19 10:16:18;;;;;;;47.43;29.20;;;;;;;21.14;81.44;101338.75;6190065;23;20009;-83
2022/08/19 10:18:44;;;;;;;44.38;29.02;;;;;;;21.34;80.89;101343.44;6216572;23;20023;-83
2022/08/19 10:21:15;;;;;;;41.60;28.23;;;;;;;21.64;79.52;101329.91;6189726;23;20004;-83
2022/08/19 10:23:44;;;;;;;44.05;28.05;;;;;;;22.05;77.55;101327.88;6190690;23;20075;-83
2022/08/19 10:26:12;;;;;;;48.22;28.10;;;;;;;22.42;75.73;101329.41;6216511;23;20075;-83
2022/08/19 10:28:40;;;;;;;45.93;28.63;;;;;;;22.29;74.73;101320.91;6189986;23;20513;-82
2022/08/19 10:31:13;;;;;;;43.75;27.50;;;;;;;22.24;75.77;101327.28;6165816;23;20004;-83
2022/08/19 10:33:39;;;;;;;40.33;26.70;;;;;;;22.60;74.19;101327.97;6216835;23;20068;-83
2022/08/19 10:36:09;;;;;;;40.75;27.40;;;;;;;22.51;72.48;101321.34;6189958;23;20323;-83
2022/08/19 10:38:42;;;;;;;39.83;27.33;;;;;;;22.58;72.50;101332.94;6216557;23;20457;-83
2022/08/19 10:41:14;;;;;;;45.03;27.10;;;;;;;22.76;72.30;101319.56;6192146;23;20000;-83
2022/08/19 10:43:44;;;;;;;39.40;26.20;;;;;;;23.11;70.96;101328.78;6216401;23;19996;-83
2022/08/19 10:46:13;;;;;;;41.20;24.95;;;;;;;23.27;70.11;101318.41;6166055;23;20414;-83
2022/08/19 10:48:39;;;;;;;40.88;26.15;;;;;;;23.70;69.31;101326.84;6216331;23;20072;-83
2022/08/19 10:53:50;;;;;;;35.47;24.27;;;;;;;24.33;66.00;101313.94;6194646;23;20088;-83
2022/08/19 10:59:03;;;;;;;37.03;24.13;;;;;;;24.35;64.97;101311.72;6217045;23;20082;-82
2022/08/19 11:01:30;;;;;;;41.03;24.73;;;;;;;24.42;65.05;101322.44;6189762;23;20008;-83
2022/08/19 11:03:59;;;;;;;44.33;24.43;;;;;;;24.13;65.41;101312.28;6190113;23;20044;-83
2022/08/19 11:06:25;;;;;;;40.97;24.35;;;;;;;24.07;66.34;101313.47;6216459;23;20013;-83
2022/08/19 11:08:54;;;;;;;41.95;27.05;;;;;;;23.94;65.46;101318.59;6164678;23;20008;-83
2022/08/19 11:11:20;;;;;;;44.53;29.73;;;;;;;23.77;66.34;101315.41;6215965;23;20009;-83
2022/08/19 11:13:45;;;;;;;41.85;28.60;;;;;;;24.10;66.40;101310.91;6217189;23;20015;-83
2022/08/19 11:16:22;;;;;;;48.10;31.60;;;;;;;24.38;65.07;101313.09;6165080;23;20431;-82
2022/08/19 11:18:50;;;;;;;47.07;33.00;;;;;;;24.51;63.99;101310.38;6189401;23;20306;-83
2022/08/19 11:21:22;;;;;;;44.83;29.15;;;;;;;25.31;61.93;101320.91;6189627;23;20032;-82
2022/08/19 11:23:51;;;;;;;47.67;30.80;;;;;;;25.68;59.85;101310.78;6216354;23;20075;-83
2022/08/19 11:26:20;;;;;;;43.20;29.80;;;;;;;26.38;57.60;101303.28;6216306;23;20009;-83
2022/08/19 11:28:46;;;;;;;44.80;29.73;;;;;;;26.42;56.30;101304.31;6140047;23;20457;-82
2022/08/19 11:31:15;;;;;;;43.20;28.37;;;;;;;26.50;56.16;101303.56;6216586;23;20000;-82
2022/08/19 11:33:41;;;;;;;37.28;25.85;;;;;;;26.72;54.84;101300.03;6215414;23;20454;-83
2022/08/19 11:36:08;;;;;;;35.42;23.08;;;;;;;26.60;54.69;101297.78;6189195;23;20016;-82
2022/08/19 11:38:35;;;;;;;35.78;25.05;;;;;;;26.55;55.44;101289.53;6189109;23;20431;-83
2022/08/19 11:41:04;;;;;;;39.17;26.02;;;;;;;26.71;55.21;101284.47;6189412;23;20005;-84
2022/08/19 11:43:34;;;;;;;37.20;27.20;;;;;;;26.43;56.15;101290.06;6216123;23;20009;-85
2022/08/19 11:46:03;;;;;;;36.53;26.15;;;;;;;26.49;55.62;101282.44;6189093;23;20009;-84
2022/08/19 11:48:28;;;;;;;34.03;24.23;;;;;;;27.72;53.01;101286.09;6215925;23;20031;-84